• Join FlightAware (Why Join?)
  • Login
  • US Flag 
09:35PM EST


 

Airport Tracker/Info


-or-


 

Live Flight TrackerFlight Track Log ✈ SKW6534 ✈ 21-Apr-2013 ✈ KIDA - KDEN

Flight Track Log - Related Links

Times and Time Zones

All times are in EDT time to prevent confusion due to time zone crossing. See the SKW6534 flight status page for this flight to view local times or setup timezone preferences in your user account.

Time Position Orientation Groundspeed Altitude Reporting Facility
EDT Latitude Longitude Course Direction KTS MPH feet Rate Location/Type
03:10PM 43.4728 -112.0292 119° Southeast 243 280 7,400  Level Salt Lake Center
03:11PM 43.4497 -111.9344 109° East 236 272 10,600 2,820 Climbing Salt Lake Center
03:12PM 43.2181 -111.5193 127° Southeast  Level FlightAware Approximate
03:12PM 43.4056 -111.8500 126° Southeast 266 306 13,300  Level Salt Lake Center
03:13PM 43.1519 -111.3978 127° Southeast  Level FlightAware Approximate
03:13PM 43.3481 -111.7428 126° Southeast 302 348 16,100  Level Salt Lake Center
03:14PM 43.0893 -111.2730 122° Southeast  Level FlightAware Approximate
03:14PM 43.2956 -111.6472 127° Southeast 317 365 17,900  Level Salt Lake Center
03:15PM 43.2272 -111.5228 127° Southeast 350 403 19,400 1,560 Climbing Salt Lake Center
03:16PM 43.1636 -111.4061 127° Southeast 381 438 21,200 1,500 Climbing Salt Lake Center
03:17PM 43.0869 -111.2619 126° Southeast 404 465 22,500 1,320 Climbing Salt Lake Center
03:18PM 43.0189 -111.1364 127° Southeast 423 487 24,000 1,500 Climbing Salt Lake Center
03:19PM 42.9483 -111.0092 127° Southeast 434 499 25,600 1,560 Climbing Salt Lake Center
03:20PM 42.8683 -110.8592 126° Southeast 438 504 27,200 1,260 Climbing Salt Lake Center
03:21PM 42.7972 -110.7372 128° Southeast 433 498 28,300 1,020 Climbing Salt Lake Center
03:22PM 42.7133 -110.5867 127° Southeast 442 509 29,400 1,020 Climbing Salt Lake Center
03:23PM 42.6417 -110.4592 127° Southeast 443 510 30,500 960 Climbing Salt Lake Center
03:24PM 42.5575 -110.3086 127° Southeast 449 517 31,400 720 Climbing Salt Lake Center
03:25PM 42.4836 -110.1772 127° Southeast 455 524 32,000 540 Climbing Salt Lake Center
03:26PM 42.4092 -110.0447 127° Southeast 461 531 32,600 480 Climbing Salt Lake Center
03:27PM 42.3186 -109.8869 128° Southeast 471 542 33,000 180 Climbing Salt Lake Center
03:28PM 42.2383 -109.7472 128° Southeast 485 558 33,000  Level Salt Lake Center
03:29PM 42.1422 -109.5786 128° Southeast 504 580 33,000  Level Salt Lake Center
03:30PM 42.0586 -109.4328 128° Southeast 512 589 33,000  Level Salt Lake Center
03:31PM 41.9608 -109.2644 128° Southeast 511 588 33,000  Level Salt Lake Center
03:32PM 41.8767 -109.1200 128° Southeast 511 588 33,000  Level Salt Lake Center
03:33PM 41.7931 -108.9758 128° Southeast 508 585 33,000  Level Salt Lake Center
03:34PM 41.6947 -108.8097 128° Southeast 505 581 33,000  Level Salt Lake Center
03:35PM 41.6219 -108.6578 123° Southeast 506 582 33,000  Level Salt Lake Center
03:36PM 41.5617 -108.4967 117° Southeast 504 580 33,000  Level Salt Lake Center
03:37PM 41.4911 -108.3103 117° Southeast 503 579 33,000  Level Salt Lake Center
03:38PM 41.4311 -108.1511 117° Southeast 503 579 33,000  Level Salt Lake Center
03:39PM 41.3997 -108.0711 118° Southeast 500 575 33,000  Level Denver Center
03:39PM 41.3611 -107.9661 116° Southeast 501 577 33,000  Level Salt Lake Center
03:41PM 41.3000 -107.8067 117° Southeast 503 579 33,000  Level Salt Lake Center
03:41PM 41.2694 -107.7275 117° Southeast 503 579 33,000  Level Denver Center
03:42PM 41.1986 -107.5456 117° Southeast 499 574 33,000  Level Denver Center
03:43PM 41.1383 -107.3875 117° Southeast 500 575 33,000  Level Denver Center
03:44PM 41.0672 -107.2050 117° Southeast 498 573 33,000  Level Denver Center
03:45PM 41.0069 -107.0500 117° Southeast 495 570 33,000  Level Denver Center
03:47PM 40.8750 -106.7169 118° Southeast 494 568 33,000  Level Denver Center
03:48PM 40.8036 -106.5389 118° Southeast 492 566 33,000  Level Denver Center
03:49PM 40.7397 -106.3786 118° Southeast 494 568 33,000 -780 Level Denver Center
03:50PM 40.6786 -106.2258 118° Southeast 493 567 31,500 -2,520 Descending Denver Center
03:51PM 40.6053 -106.0447 118° Southeast 495 570 27,900 -3,420 Descending Denver Center
03:52PM 40.5389 -105.8819 118° Southeast 499 574 24,600 -3,240 Descending Denver Center
03:53PM 40.4747 -105.7267 118° Southeast 483 556 21,300 -2,760 Descending Denver Center
03:54PM 40.4153 -105.5844 119° Southeast 445 512 19,000 -1,500 Descending Denver Center
03:55PM 40.3731 -105.4533 113° Southeast 372 428 18,200 -1,080 Descending Denver Center
03:57PM 40.3803 -105.3297 86° East 343 395 16,800 -1,380 Descending Denver Center
03:58PM 40.3869 -105.2025 86° East 328 377 15,400 -1,260 Descending Denver Center
03:59PM 40.3928 -105.0975 86° East 291 335 14,300 -1,080 Descending Denver Center
04:00PM 40.3783 -105.0022 101° East 275 316 13,200 -780 Descending Denver Center
04:01PM 40.3408 -104.9103 118° Southeast 269 310 12,800 -900 Descending Denver Center
04:02PM 40.2925 -104.8422 133° Southeast 258 297 11,400 -1,080 Descending Denver Center
04:03PM 40.2389 -104.7708 135° Southeast 256 295 10,600 -660 Descending Denver Center
04:04PM 40.1822 -104.7239 148° Southeast 241 277 10,100 -660 Descending Denver Center
04:05PM 40.1211 -104.6833 153° Southeast 245 282 9,300 -840 Descending Denver Center
04:06PM 40.0486 -104.6853 181° South 245 282 8,400 -900 Descending Denver Center